Terminal Aerodrome Forecast
Issued by NWS Jackson, KY

Home | Current Version | Previous Version | Text Only | Print | Product List | Glossary On
Versions: 1 2 3 4 5 6 7 8 9 10 11 12 13
000
FTUS43 KJKL 282300
TAFLOZ
TAF
KLOZ 282321Z 2900/2924 11003KT P6SM SCT250
     FM291000 18009KT P6SM SCT050 BKN200 WS019/20040KT
     FM291200 19010KT P6SM VCSH BKN050
     FM291500 20010G20KT 5SM -SHRA BKN030 BKN050=

USA.gov is the U.S. government's official web portal to all federal, state and local government web resources and services.